Terminal Aerodrome Forecast
Issued by NWS Billings, MT

Home | Current Version | Previous Version | Text Only | Print | Product List | Glossary On
Versions: 1 2 3 4 5 6 7 8 9 10 11 12 13 14 15 16 17 18 19
000
FTUS45 KBYZ 311450 AAA
TAFMLS
TAF AMD
KMLS 311450Z 3115/0112 29025G40KT 5SM -SHRA BKN010 BKN020 OVC040
     FM312000 31018G33KT 6SM -SHRA SCT015 BKN020 OVC040
     FM010100 32018KT P6SM SCT025 SCT050 SCT200=

USA.gov is the U.S. government's official web portal to all federal, state and local government web resources and services.